sensor_id;sensor_type;location;lat;lon;timestamp;pressure;altitude;pressure_sealevel;temperature;humidity
63088;BME280;49173;43.164;27.786;2023-12-07T00:01:09;100145.44;;;8.64;100.00
63088;BME280;49173;43.164;27.786;2023-12-07T00:03:35;100142.06;;;8.60;100.00
63088;BME280;49173;43.164;27.786;2023-12-07T00:06:01;100144.75;;;8.60;100.00
63088;BME280;49173;43.164;27.786;2023-12-07T00:08:27;100142.00;;;8.62;100.00
63088;BME280;49173;43.164;27.786;2023-12-07T00:10:53;100149.06;;;8.63;100.00
63088;BME280;49173;43.164;27.786;2023-12-07T00:13:18;100161.31;;;8.67;100.00
63088;BME280;49173;43.164;27.786;2023-12-07T00:15:44;100151.44;;;8.69;100.00
63088;BME280;49173;43.164;27.786;2023-12-07T00:18:10;100155.97;;;8.67;100.00
63088;BME280;49173;43.164;27.786;2023-12-07T00:20:36;100158.53;;;8.70;100.00
63088;BME280;49173;43.164;27.786;2023-12-07T00:23:03;100163.09;;;8.68;100.00
63088;BME280;49173;43.164;27.786;2023-12-07T00:25:29;100150.50;;;8.70;100.00
63088;BME280;49173;43.164;27.786;2023-12-07T00:27:55;100151.34;;;8.70;100.00
63088;BME280;49173;43.164;27.786;2023-12-07T00:30:21;100152.38;;;8.68;100.00
63088;BME280;49173;43.164;27.786;2023-12-07T00:32:46;100157.75;;;8.68;100.00
63088;BME280;49173;43.164;27.786;2023-12-07T00:35:13;100158.59;;;8.68;100.00
63088;BME280;49173;43.164;27.786;2023-12-07T00:37:40;100160.16;;;8.72;100.00
63088;BME280;49173;43.164;27.786;2023-12-07T00:40:06;100165.47;;;8.74;100.00
63088;BME280;49173;43.164;27.786;2023-12-07T00:42:33;100164.56;;;8.73;100.00
63088;BME280;49173;43.164;27.786;2023-12-07T00:45:02;100162.84;;;8.72;100.00
63088;BME280;49173;43.164;27.786;2023-12-07T00:47:28;100164.81;;;8.69;100.00
63088;BME280;49173;43.164;27.786;2023-12-07T00:49:54;100159.28;;;8.72;100.00
63088;BME280;49173;43.164;27.786;2023-12-07T00:52:20;100156.78;;;8.69;100.00
63088;BME280;49173;43.164;27.786;2023-12-07T00:54:47;100153.16;;;8.70;100.00
63088;BME280;49173;43.164;27.786;2023-12-07T00:57:13;100154.25;;;8.66;100.00
63088;BME280;49173;43.164;27.786;2023-12-07T00:59:39;100146.19;;;8.67;100.00
63088;BME280;49173;43.164;27.786;2023-12-07T01:02:07;100154.25;;;8.66;100.00
63088;BME280;49173;43.164;27.786;2023-12-07T01:04:33;100143.56;;;8.66;100.00
63088;BME280;49173;43.164;27.786;2023-12-07T01:06:59;100153.47;;;8.64;100.00
63088;BME280;49173;43.164;27.786;2023-12-07T01:09:25;100150.72;;;8.65;100.00
63088;BME280;49173;43.164;27.786;2023-12-07T01:11:51;100147.19;;;8.65;100.00
63088;BME280;49173;43.164;27.786;2023-12-07T01:14:18;100149.00;;;8.64;100.00
63088;BME280;49173;43.164;27.786;2023-12-07T01:16:44;100140.88;;;8.66;100.00
63088;BME280;49173;43.164;27.786;2023-12-07T01:19:11;100144.41;;;8.66;100.00
63088;BME280;49173;43.164;27.786;2023-12-07T01:21:43;100132.16;;;8.62;100.00
63088;BME280;49173;43.164;27.786;2023-12-07T01:24:09;100138.19;;;8.66;100.00
63088;BME280;49173;43.164;27.786;2023-12-07T01:26:35;100131.13;;;8.65;100.00
63088;BME280;49173;43.164;27.786;2023-12-07T01:29:01;100143.50;;;8.67;100.00
63088;BME280;49173;43.164;27.786;2023-12-07T01:31:29;100148.91;;;8.66;100.00
63088;BME280;49173;43.164;27.786;2023-12-07T01:33:54;100144.38;;;8.68;100.00
63088;BME280;49173;43.164;27.786;2023-12-07T01:36:20;100141.81;;;8.65;100.00
63088;BME280;49173;43.164;27.786;2023-12-07T01:38:47;100134.75;;;8.64;100.00
63088;BME280;49173;43.164;27.786;2023-12-07T01:41:12;100146.22;;;8.66;100.00
63088;BME280;49173;43.164;27.786;2023-12-07T01:43:47;100141.75;;;8.66;100.00
63088;BME280;49173;43.164;27.786;2023-12-07T01:46:16;100146.31;;;8.64;100.00
63088;BME280;49173;43.164;27.786;2023-12-07T01:48:43;100144.59;;;8.63;100.00
63088;BME280;49173;43.164;27.786;2023-12-07T01:51:10;100135.06;;;8.58;100.00
63088;BME280;49173;43.164;27.786;2023-12-07T01:53:39;100135.06;;;8.58;100.00
63088;BME280;49173;43.164;27.786;2023-12-07T01:56:05;100146.78;;;8.55;100.00
63088;BME280;49173;43.164;27.786;2023-12-07T01:58:32;100138.84;;;8.53;100.00
63088;BME280;49173;43.164;27.786;2023-12-07T02:01:00;100144.81;;;8.59;100.00
63088;BME280;49173;43.164;27.786;2023-12-07T02:03:26;100147.56;;;8.57;100.00
63088;BME280;49173;43.164;27.786;2023-12-07T02:05:53;100148.34;;;8.59;100.00
63088;BME280;49173;43.164;27.786;2023-12-07T02:08:20;100153.69;;;8.59;100.00
63088;BME280;49173;43.164;27.786;2023-12-07T02:10:46;100147.34;;;8.62;100.00
63088;BME280;49173;43.164;27.786;2023-12-07T02:13:12;100158.75;;;8.65;100.00
63088;BME280;49173;43.164;27.786;2023-12-07T02:15:39;100158.81;;;8.64;100.00
63088;BME280;49173;43.164;27.786;2023-12-07T02:18:21;100156.31;;;8.61;100.00
63088;BME280;49173;43.164;27.786;2023-12-07T02:21:13;100154.50;;;8.61;100.00
63088;BME280;49173;43.164;27.786;2023-12-07T02:23:41;100157.56;;;8.53;100.00
63088;BME280;49173;43.164;27.786;2023-12-07T02:29:17;100154.72;;;8.57;100.00
63088;BME280;49173;43.164;27.786;2023-12-07T02:31:43;100156.31;;;8.61;100.00
63088;BME280;49173;43.164;27.786;2023-12-07T02:34:09;100163.41;;;8.62;100.00
63088;BME280;49173;43.164;27.786;2023-12-07T02:36:38;100159.78;;;8.63;100.00
63088;BME280;49173;43.164;27.786;2023-12-07T02:39:05;100157.88;;;8.65;100.00
63088;BME280;49173;43.164;27.786;2023-12-07T02:41:33;100156.31;;;8.61;100.00
63088;BME280;49173;43.164;27.786;2023-12-07T02:43:59;100159.28;;;8.55;100.00
63088;BME280;49173;43.164;27.786;2023-12-07T02:46:26;100163.69;;;8.56;100.00
63088;BME280;49173;43.164;27.786;2023-12-07T02:48:52;100170.78;;;8.57;100.00
63088;BME280;49173;43.164;27.786;2023-12-07T02:51:18;100166.28;;;8.57;100.00
63088;BME280;49173;43.164;27.786;2023-12-07T02:53:45;100160.16;;;8.55;100.00
63088;BME280;49173;43.164;27.786;2023-12-07T02:56:11;100167.44;;;8.51;100.00
63088;BME280;49173;43.164;27.786;2023-12-07T02:58:37;100163.91;;;8.51;100.00
63088;BME280;49173;43.164;27.786;2023-12-07T03:01:03;100165.72;;;8.50;100.00
63088;BME280;49173;43.164;27.786;2023-12-07T03:03:29;100165.72;;;8.50;100.00
63088;BME280;49173;43.164;27.786;2023-12-07T03:05:55;100168.41;;;8.50;100.00
63088;BME280;49173;43.164;27.786;2023-12-07T03:08:21;100167.69;;;8.47;100.00
63088;BME280;49173;43.164;27.786;2023-12-07T03:10:47;100169.91;;;8.39;100.00
63088;BME280;49173;43.164;27.786;2023-12-07T03:13:13;100175.25;;;8.39;100.00
63088;BME280;49173;43.164;27.786;2023-12-07T03:15:39;100178.53;;;8.44;100.00
63088;BME280;49173;43.164;27.786;2023-12-07T03:18:05;100180.34;;;8.43;100.00
63088;BME280;49173;43.164;27.786;2023-12-07T03:20:31;100175.00;;;8.43;100.00
63088;BME280;49173;43.164;27.786;2023-12-07T03:22:57;100178.69;;;8.41;100.00
63088;BME280;49173;43.164;27.786;2023-12-07T03:25:23;100169.94;;;8.37;100.00
63088;BME280;49173;43.164;27.786;2023-12-07T03:27:48;100180.84;;;8.33;100.00
63088;BME280;49173;43.164;27.786;2023-12-07T03:30:14;100179.16;;;8.30;100.00
63088;BME280;49173;43.164;27.786;2023-12-07T03:32:40;100175.78;;;8.26;100.00
63088;BME280;49173;43.164;27.786;2023-12-07T03:35:06;100177.44;;;8.29;100.00
63088;BME280;49173;43.164;27.786;2023-12-07T03:37:33;100185.13;;;8.37;100.00
63088;BME280;49173;43.164;27.786;2023-12-07T03:39:58;100173.47;;;8.38;100.00
63088;BME280;49173;43.164;27.786;2023-12-07T03:42:25;100179.13;;;8.32;100.00
63088;BME280;49173;43.164;27.786;2023-12-07T03:44:51;100171.16;;;8.30;100.00
63088;BME280;49173;43.164;27.786;2023-12-07T03:47:17;100181.44;;;8.20;100.00
63088;BME280;49173;43.164;27.786;2023-12-07T03:49:44;100184.91;;;8.22;100.00
63088;BME280;49173;43.164;27.786;2023-12-07T03:52:10;100182.31;;;8.21;100.00
63088;BME280;49173;43.164;27.786;2023-12-07T03:54:36;100178.75;;;8.20;100.00
63088;BME280;49173;43.164;27.786;2023-12-07T03:57:03;100180.69;;;8.17;100.00
63088;BME280;49173;43.164;27.786;2023-12-07T03:59:30;100178.19;;;8.14;100.00
63088;BME280;49173;43.164;27.786;2023-12-07T04:01:56;100179.13;;;8.13;100.00
63088;BME280;49173;43.164;27.786;2023-12-07T04:04:25;100179.84;;;8.16;100.00
63088;BME280;49173;43.164;27.786;2023-12-07T04:06:51;100188.72;;;8.17;100.00
63088;BME280;49173;43.164;27.786;2023-12-07T04:09:17;100188.59;;;8.20;100.00
63088;BME280;49173;43.164;27.786;2023-12-07T04:11:43;100189.47;;;8.20;100.00
63088;BME280;49173;43.164;27.786;2023-12-07T04:14:09;100185.91;;;8.20;100.00
63088;BME280;49173;43.164;27.786;2023-12-07T04:16:35;100191.41;;;8.17;100.00
63088;BME280;49173;43.164;27.786;2023-12-07T04:19:01;100194.81;;;8.20;100.00
63088;BME280;49173;43.164;27.786;2023-12-07T04:21:27;100197.47;;;8.20;100.00
63088;BME280;49173;43.164;27.786;2023-12-07T04:23:53;100197.56;;;8.19;100.00
63088;BME280;49173;43.164;27.786;2023-12-07T04:26:19;100195.50;;;8.24;100.00
63088;BME280;49173;43.164;27.786;2023-12-07T04:28:45;100193.66;;;8.26;100.00
63088;BME280;49173;43.164;27.786;2023-12-07T04:31:11;100207.06;;;8.24;100.00
63088;BME280;49173;43.164;27.786;2023-12-07T04:33:37;100203.53;;;8.24;100.00
63088;BME280;49173;43.164;27.786;2023-12-07T04:36:04;100202.75;;;8.22;100.00
63088;BME280;49173;43.164;27.786;2023-12-07T04:38:30;100201.19;;;8.18;100.00
63088;BME280;49173;43.164;27.786;2023-12-07T04:40:57;100202.75;;;8.03;100.00
63088;BME280;49173;43.164;27.786;2023-12-07T04:43:23;100206.63;;;7.96;100.00
63088;BME280;49173;43.164;27.786;2023-12-07T04:45:49;100201.72;;;7.87;100.00
63088;BME280;49173;43.164;27.786;2023-12-07T04:48:15;100209.66;;;7.88;100.00
63088;BME280;49173;43.164;27.786;2023-12-07T04:50:41;100214.31;;;7.85;100.00
63088;BME280;49173;43.164;27.786;2023-12-07T04:53:07;100211.72;;;7.83;100.00
63088;BME280;49173;43.164;27.786;2023-12-07T04:55:33;100209.44;;;7.74;100.00
63088;BME280;49173;43.164;27.786;2023-12-07T04:57:59;100208.06;;;7.65;100.00
63088;BME280;49173;43.164;27.786;2023-12-07T05:00:25;100212.63;;;7.63;100.00
63088;BME280;49173;43.164;27.786;2023-12-07T05:02:51;100208.13;;;7.64;100.00
63088;BME280;49173;43.164;27.786;2023-12-07T05:05:17;100217.97;;;7.63;100.00
63088;BME280;49173;43.164;27.786;2023-12-07T05:07:42;100219.97;;;7.58;100.00
63088;BME280;49173;43.164;27.786;2023-12-07T05:10:09;100226.16;;;7.59;100.00
63088;BME280;49173;43.164;27.786;2023-12-07T05:12:35;100216.50;;;7.56;100.00
63088;BME280;49173;43.164;27.786;2023-12-07T05:15:01;100216.50;;;7.56;100.00
63088;BME280;49173;43.164;27.786;2023-12-07T05:17:29;100222.97;;;7.51;100.00
63088;BME280;49173;43.164;27.786;2023-12-07T05:19:55;100221.38;;;7.47;100.00
63088;BME280;49173;43.164;27.786;2023-12-07T05:22:21;100215.91;;;7.50;100.00
63088;BME280;49173;43.164;27.786;2023-12-07T05:24:47;100220.31;;;7.51;100.00
63088;BME280;49173;43.164;27.786;2023-12-07T05:27:13;100219.72;;;7.44;100.00
63088;BME280;49173;43.164;27.786;2023-12-07T05:29:39;100221.50;;;7.43;100.00
63088;BME280;49173;43.164;27.786;2023-12-07T05:32:05;100220.72;;;7.41;100.00
63088;BME280;49173;43.164;27.786;2023-12-07T05:34:31;100223.31;;;7.43;100.00
63088;BME280;49173;43.164;27.786;2023-12-07T05:36:57;100226.84;;;7.43;100.00
63088;BME280;49173;43.164;27.786;2023-12-07T05:39:23;100229.78;;;7.37;100.00
63088;BME280;49173;43.164;27.786;2023-12-07T05:41:49;100224.88;;;7.28;100.00
63088;BME280;49173;43.164;27.786;2023-12-07T05:44:15;100232.63;;;7.34;100.00
63088;BME280;49173;43.164;27.786;2023-12-07T05:46:47;100231.78;;;7.32;100.00
63088;BME280;49173;43.164;27.786;2023-12-07T05:49:15;100233.66;;;7.30;100.00
63088;BME280;49173;43.164;27.786;2023-12-07T05:51:41;100243.31;;;7.33;100.00
63088;BME280;49173;43.164;27.786;2023-12-07T05:54:07;100236.22;;;7.33;100.00
63088;BME280;49173;43.164;27.786;2023-12-07T05:56:33;100247.69;;;7.35;100.00
63088;BME280;49173;43.164;27.786;2023-12-07T05:58:59;100247.88;;;7.31;100.00
63088;BME280;49173;43.164;27.786;2023-12-07T06:01:25;100250.75;;;7.26;100.00
63088;BME280;49173;43.164;27.786;2023-12-07T06:03:51;100249.84;;;7.27;100.00
63088;BME280;49173;43.164;27.786;2023-12-07T06:06:17;100251.50;;;7.30;100.00
63088;BME280;49173;43.164;27.786;2023-12-07T06:08:44;100245.13;;;7.32;100.00
63088;BME280;49173;43.164;27.786;2023-12-07T06:11:10;100251.41;;;7.31;100.00
63088;BME280;49173;43.164;27.786;2023-12-07T06:13:37;100251.50;;;7.30;100.00
63088;BME280;49173;43.164;27.786;2023-12-07T06:16:03;100250.63;;;7.29;100.00
63088;BME280;49173;43.164;27.786;2023-12-07T06:18:30;100254.16;;;7.30;100.00
63088;BME280;49173;43.164;27.786;2023-12-07T06:20:56;100252.34;;;7.30;100.00
63088;BME280;49173;43.164;27.786;2023-12-07T06:23:22;100262.91;;;7.33;100.00
63088;BME280;49173;43.164;27.786;2023-12-07T06:25:47;100257.56;;;7.33;100.00
63088;BME280;49173;43.164;27.786;2023-12-07T06:28:14;100254.75;;;7.36;100.00
63088;BME280;49173;43.164;27.786;2023-12-07T06:30:40;100264.56;;;7.36;100.00
63088;BME280;49173;43.164;27.786;2023-12-07T06:33:05;100260.16;;;7.35;100.00
63088;BME280;49173;43.164;27.786;2023-12-07T06:35:31;100260.44;;;7.29;100.00
63088;BME280;49173;43.164;27.786;2023-12-07T06:37:57;100266.63;;;7.29;100.00
63088;BME280;49173;43.164;27.786;2023-12-07T06:40:23;100260.50;;;7.27;100.00
63088;BME280;49173;43.164;27.786;2023-12-07T06:42:49;100269.44;;;7.26;100.00
63088;BME280;49173;43.164;27.786;2023-12-07T06:45:15;100285.47;;;7.26;100.00
63088;BME280;49173;43.164;27.786;2023-12-07T06:47:43;100287.31;;;7.24;100.00
63088;BME280;49173;43.164;27.786;2023-12-07T06:50:10;100289.91;;;7.26;100.00
63088;BME280;49173;43.164;27.786;2023-12-07T06:52:37;100290.66;;;7.29;100.00
63088;BME280;49173;43.164;27.786;2023-12-07T06:55:03;100294.34;;;7.27;100.00
63088;BME280;49173;43.164;27.786;2023-12-07T06:57:29;100298.81;;;7.26;100.00
63088;BME280;49173;43.164;27.786;2023-12-07T06:59:55;100299.47;;;7.31;100.00
63088;BME280;49173;43.164;27.786;2023-12-07T07:02:22;100298.66;;;7.29;100.00
63088;BME280;49173;43.164;27.786;2023-12-07T07:04:49;100303.94;;;7.31;100.00
63088;BME280;49173;43.164;27.786;2023-12-07T07:07:15;100302.28;;;7.28;100.00
63088;BME280;49173;43.164;27.786;2023-12-07T07:09:42;100308.56;;;7.27;100.00
63088;BME280;49173;43.164;27.786;2023-12-07T07:12:08;100307.88;;;7.22;100.00
63088;BME280;49173;43.164;27.786;2023-12-07T07:14:34;100304.09;;;7.28;100.00
63088;BME280;49173;43.164;27.786;2023-12-07T07:17:01;100311.00;;;7.32;100.00
63088;BME280;49173;43.164;27.786;2023-12-07T07:19:29;100311.75;;;7.35;100.00
63088;BME280;49173;43.164;27.786;2023-12-07T07:21:55;100314.34;;;7.37;100.00
63088;BME280;49173;43.164;27.786;2023-12-07T07:24:21;100307.16;;;7.39;100.00
63088;BME280;49173;43.164;27.786;2023-12-07T07:26:47;100310.56;;;7.42;100.00
63088;BME280;49173;43.164;27.786;2023-12-07T07:29:14;100308.91;;;7.40;100.00
63088;BME280;49173;43.164;27.786;2023-12-07T07:31:40;100317.91;;;7.37;100.00
63088;BME280;49173;43.164;27.786;2023-12-07T07:34:06;100313.34;;;7.39;100.00
63088;BME280;49173;43.164;27.786;2023-12-07T07:36:33;100314.34;;;7.37;100.00
63088;BME280;49173;43.164;27.786;2023-12-07T07:38:59;100318.69;;;7.39;100.00
63088;BME280;49173;43.164;27.786;2023-12-07T07:41:25;100325.97;;;7.36;100.00
63088;BME280;49173;43.164;27.786;2023-12-07T07:43:51;100328.03;;;7.29;100.00
63088;BME280;49173;43.164;27.786;2023-12-07T07:46:17;100328.03;;;7.29;100.00
63088;BME280;49173;43.164;27.786;2023-12-07T07:48:43;100335.00;;;7.33;100.00
63088;BME280;49173;43.164;27.786;2023-12-07T07:51:09;100332.94;;;7.40;100.00
63088;BME280;49173;43.164;27.786;2023-12-07T07:53:35;100331.13;;;7.40;100.00
63088;BME280;49173;43.164;27.786;2023-12-07T07:56:02;100334.66;;;7.41;100.00
63088;BME280;49173;43.164;27.786;2023-12-07T07:58:28;100336.59;;;7.37;100.00
63088;BME280;49173;43.164;27.786;2023-12-07T08:00:54;100339.50;;;7.31;100.00
63088;BME280;49173;43.164;27.786;2023-12-07T08:03:20;100351.63;;;7.40;100.00
63088;BME280;49173;43.164;27.786;2023-12-07T08:05:47;100354.22;;;7.41;100.00
63088;BME280;49173;43.164;27.786;2023-12-07T08:08:15;100346.94;;;7.45;100.00
63088;BME280;49173;43.164;27.786;2023-12-07T08:10:41;100357.50;;;7.48;100.00
63088;BME280;49173;43.164;27.786;2023-12-07T08:13:07;100356.50;;;7.51;100.00
63088;BME280;49173;43.164;27.786;2023-12-07T08:15:36;100352.97;;;7.50;100.00
63088;BME280;49173;43.164;27.786;2023-12-07T08:18:02;100352.19;;;7.47;100.00
63088;BME280;49173;43.164;27.786;2023-12-07T08:20:28;100360.44;;;7.42;100.00
63088;BME280;49173;43.164;27.786;2023-12-07T08:22:53;100364.84;;;7.43;100.00
63088;BME280;49173;43.164;27.786;2023-12-07T08:25:19;100355.97;;;7.42;100.00
63088;BME280;49173;43.164;27.786;2023-12-07T08:27:47;100348.81;;;7.43;100.00
63088;BME280;49173;43.164;27.786;2023-12-07T08:30:14;100350.53;;;7.44;100.00
63088;BME280;49173;43.164;27.786;2023-12-07T08:32:40;100356.81;;;7.43;100.00
63088;BME280;49173;43.164;27.786;2023-12-07T08:35:06;100355.97;;;7.42;100.00
63088;BME280;49173;43.164;27.786;2023-12-07T08:37:32;100358.88;;;7.36;100.00
63088;BME280;49173;43.164;27.786;2023-12-07T08:39:59;100354.47;;;7.35;100.00
63088;BME280;49173;43.164;27.786;2023-12-07T08:42:24;100351.00;;;7.33;100.00
63088;BME280;49173;43.164;27.786;2023-12-07T08:44:52;100357.84;;;7.40;100.00
63088;BME280;49173;43.164;27.786;2023-12-07T08:47:19;100361.13;;;7.47;100.00
63088;BME280;49173;43.164;27.786;2023-12-07T08:49:45;100367.03;;;7.54;100.00
63088;BME280;49173;43.164;27.786;2023-12-07T08:52:11;100363.31;;;7.58;100.00
63088;BME280;49173;43.164;27.786;2023-12-07T08:54:37;100362.69;;;7.51;100.00
63088;BME280;49173;43.164;27.786;2023-12-07T08:57:03;100359.56;;;7.41;100.00
63088;BME280;49173;43.164;27.786;2023-12-07T08:59:29;100368.88;;;7.31;100.00
63088;BME280;49173;43.164;27.786;2023-12-07T09:01:56;100366.09;;;7.34;100.00
63088;BME280;49173;43.164;27.786;2023-12-07T09:04:22;100367.94;;;7.32;100.00
63088;BME280;49173;43.164;27.786;2023-12-07T09:06:47;100367.06;;;7.32;100.00
63088;BME280;49173;43.164;27.786;2023-12-07T09:09:13;100363.06;;;7.22;100.00
63088;BME280;49173;43.164;27.786;2023-12-07T09:11:39;100359.53;;;7.21;100.00
63088;BME280;49173;43.164;27.786;2023-12-07T09:14:05;100361.13;;;7.25;100.00
63088;BME280;49173;43.164;27.786;2023-12-07T09:16:31;100358.19;;;7.31;100.00
63088;BME280;49173;43.164;27.786;2023-12-07T09:18:57;100359.94;;;7.32;100.00
63088;BME280;49173;43.164;27.786;2023-12-07T09:21:23;100359.88;;;7.34;100.00
63088;BME280;49173;43.164;27.786;2023-12-07T09:23:49;100353.00;;;7.28;100.00
63088;BME280;49173;43.164;27.786;2023-12-07T09:26:15;100360.78;;;7.33;100.00
63088;BME280;49173;43.164;27.786;2023-12-07T09:28:41;100358.88;;;7.36;100.00
63088;BME280;49173;43.164;27.786;2023-12-07T09:31:06;100359.69;;;7.38;100.00
63088;BME280;49173;43.164;27.786;2023-12-07T09:33:36;100356.06;;;7.39;100.00
63088;BME280;49173;43.164;27.786;2023-12-07T09:36:08;100353.88;;;7.29;100.00
63088;BME280;49173;43.164;27.786;2023-12-07T09:38:40;100356.06;;;7.19;100.00
63088;BME280;49173;43.164;27.786;2023-12-07T09:41:09;100360.88;;;7.09;100.00
63088;BME280;49173;43.164;27.786;2023-12-07T09:43:42;100353.03;;;7.06;100.00
63088;BME280;49173;43.164;27.786;2023-12-07T09:46:14;100358.16;;;7.11;100.00
63088;BME280;49173;43.164;27.786;2023-12-07T09:48:51;100362.13;;;7.01;100.00
63088;BME280;49173;43.164;27.786;2023-12-07T09:51:26;100361.13;;;7.03;100.00
63088;BME280;49173;43.164;27.786;2023-12-07T09:53:57;100357.28;;;7.10;100.00
63088;BME280;49173;43.164;27.786;2023-12-07T09:56:24;100355.63;;;7.08;100.00
63088;BME280;49173;43.164;27.786;2023-12-07T09:58:51;100357.09;;;6.93;100.00
63088;BME280;49173;43.164;27.786;2023-12-07T10:01:17;100351.00;;;6.89;100.00
63088;BME280;49173;43.164;27.786;2023-12-07T10:03:46;100358.06;;;6.91;100.00
63088;BME280;49173;43.164;27.786;2023-12-07T10:06:16;100359.84;;;6.92;100.00
63088;BME280;49173;43.164;27.786;2023-12-07T10:08:42;100349.53;;;6.82;100.00
63088;BME280;49173;43.164;27.786;2023-12-07T10:11:15;100346.81;;;6.84;100.00
63088;BME280;49173;43.164;27.786;2023-12-07T10:13:45;100343.38;;;6.80;100.00
63088;BME280;49173;43.164;27.786;2023-12-07T10:16:18;100344.38;;;6.78;100.00
63088;BME280;49173;43.164;27.786;2023-12-07T10:22:39;100351.63;;;6.74;100.00
63088;BME280;49173;43.164;27.786;2023-12-07T10:25:16;100348.97;;;6.74;100.00
63088;BME280;49173;43.164;27.786;2023-12-07T10:27:53;100347.34;;;6.70;100.00
63088;BME280;49173;43.164;27.786;2023-12-07T10:30:25;100351.44;;;6.79;100.00
63088;BME280;49173;43.164;27.786;2023-12-07T10:32:55;100354.53;;;6.90;100.00
63088;BME280;49173;43.164;27.786;2023-12-07T10:35:30;100348.25;;;6.93;100.00
63088;BME280;49173;43.164;27.786;2023-12-07T10:38:01;100346.50;;;6.92;100.00
63088;BME280;49173;43.164;27.786;2023-12-07T10:40:31;100348.34;;;6.89;100.00
63088;BME280;49173;43.164;27.786;2023-12-07T10:43:04;100354.59;;;6.88;100.00
63088;BME280;49173;43.164;27.786;2023-12-07T10:45:34;100348.66;;;6.82;100.00
63088;BME280;49173;43.164;27.786;2023-12-07T10:48:10;100361.44;;;6.74;100.00
63088;BME280;49173;43.164;27.786;2023-12-07T10:50:46;100352.41;;;6.76;100.00
63088;BME280;49173;43.164;27.786;2023-12-07T10:53:33;100365.34;;;6.65;100.00
63088;BME280;49173;43.164;27.786;2023-12-07T10:56:16;100361.88;;;6.63;100.00
63088;BME280;49173;43.164;27.786;2023-12-07T10:58:47;100365.09;;;6.48;100.00
63088;BME280;49173;43.164;27.786;2023-12-07T11:01:23;100367.31;;;6.37;100.00
63088;BME280;49173;43.164;27.786;2023-12-07T11:03:51;100368.28;;;6.34;100.00
63088;BME280;49173;43.164;27.786;2023-12-07T11:06:30;100374.38;;;6.38;100.00
63088;BME280;49173;43.164;27.786;2023-12-07T11:09:08;100376.69;;;6.47;100.00
63088;BME280;49173;43.164;27.786;2023-12-07T11:11:51;100378.09;;;6.57;100.00
63088;BME280;49173;43.164;27.786;2023-12-07T11:14:21;100374.13;;;6.67;100.00
63088;BME280;49173;43.164;27.786;2023-12-07T11:16:52;100383.75;;;6.71;100.00
63088;BME280;49173;43.164;27.786;2023-12-07T11:22:10;100382.59;;;6.78;100.00
63088;BME280;49173;43.164;27.786;2023-12-07T11:24:59;100380.44;;;6.88;100.00
63088;BME280;49173;43.164;27.786;2023-12-07T11:27:33;100383.84;;;6.92;100.00
63088;BME280;49173;43.164;27.786;2023-12-07T11:30:05;100382.84;;;6.94;100.00
63088;BME280;49173;43.164;27.786;2023-12-07T11:32:36;100385.59;;;6.93;100.00
63088;BME280;49173;43.164;27.786;2023-12-07T11:35:05;100385.44;;;6.96;100.00
63088;BME280;49173;43.164;27.786;2023-12-07T11:38:04;100390.84;;;6.94;100.00
63088;BME280;49173;43.164;27.786;2023-12-07T11:40:46;100393.69;;;6.89;100.00
63088;BME280;49173;43.164;27.786;2023-12-07T11:46:05;100389.28;;;6.88;100.00
63088;BME280;49173;43.164;27.786;2023-12-07T11:48:48;100392.91;;;6.87;100.00
63088;BME280;49173;43.164;27.786;2023-12-07T11:51:18;100391.97;;;6.88;100.00
63088;BME280;49173;43.164;27.786;2023-12-07T11:53:53;100385.75;;;6.88;100.00
63088;BME280;49173;43.164;27.786;2023-12-07T11:56:27;100384.16;;;6.84;100.00
63088;BME280;49173;43.164;27.786;2023-12-07T11:58:59;100395.78;;;6.81;100.00
63088;BME280;49173;43.164;27.786;2023-12-07T12:01:28;100393.25;;;6.78;100.00
63088;BME280;49173;43.164;27.786;2023-12-07T12:03:59;100388.16;;;6.72;100.00
63088;BME280;49173;43.164;27.786;2023-12-07T12:06:28;100388.47;;;6.65;100.00
63088;BME280;49173;43.164;27.786;2023-12-07T12:08:55;100383.19;;;6.63;99.98
63088;BME280;49173;43.164;27.786;2023-12-07T12:11:24;100382.44;;;6.59;99.75
63088;BME280;49173;43.164;27.786;2023-12-07T12:13:57;100388.91;;;6.52;99.64
63088;BME280;49173;43.164;27.786;2023-12-07T12:16:29;100386.31;;;6.51;99.94
63088;BME280;49173;43.164;27.786;2023-12-07T12:19:01;100383.00;;;6.44;99.49
63088;BME280;49173;43.164;27.786;2023-12-07T12:21:33;100382.94;;;6.46;99.52
63088;BME280;49173;43.164;27.786;2023-12-07T12:24:02;100390.16;;;6.44;100.00
63088;BME280;49173;43.164;27.786;2023-12-07T12:26:36;100382.09;;;6.45;100.00
63088;BME280;49173;43.164;27.786;2023-12-07T12:29:12;100387.41;;;6.45;100.00
63088;BME280;49173;43.164;27.786;2023-12-07T12:31:43;100383.19;;;6.40;99.52
63088;BME280;49173;43.164;27.786;2023-12-07T12:34:13;100385.16;;;6.35;99.26
63088;BME280;49173;43.164;27.786;2023-12-07T12:36:42;100385.19;;;6.33;99.22
63088;BME280;49173;43.164;27.786;2023-12-07T12:39:13;100387.94;;;6.31;99.41
63088;BME280;49173;43.164;27.786;2023-12-07T12:41:39;100388.78;;;6.32;99.39
63088;BME280;49173;43.164;27.786;2023-12-07T12:44:12;100384.34;;;6.32;98.98
63088;BME280;49173;43.164;27.786;2023-12-07T12:46:41;100385.41;;;6.28;98.85
63088;BME280;49173;43.164;27.786;2023-12-07T12:49:07;100399.66;;;6.27;98.81
63088;BME280;49173;43.164;27.786;2023-12-07T12:51:40;100391.81;;;6.23;98.80
63088;BME280;49173;43.164;27.786;2023-12-07T12:54:10;100392.69;;;6.23;98.04
63088;BME280;49173;43.164;27.786;2023-12-07T12:56:46;100399.97;;;6.18;98.42